createdAt,value
2022-09-18T00:00:27.320Z,8.02
2022-09-18T00:02:55.105Z,7.96
2022-09-18T00:05:22.853Z,8.02
2022-09-18T00:07:50.547Z,8.03
2022-09-18T00:10:18.296Z,8.03
2022-09-18T00:12:47.371Z,8.05
2022-09-18T00:15:15.159Z,8.02
2022-09-18T00:17:42.864Z,8.06
2022-09-18T00:20:11.098Z,8.02
2022-09-18T00:22:39.407Z,8.04
2022-09-18T00:25:08.571Z,8.05
2022-09-18T00:27:36.264Z,8.05
2022-09-18T00:30:06.108Z,8.02
2022-09-18T00:32:34.519Z,8.04
2022-09-18T00:35:02.510Z,8.02
2022-09-18T00:37:30.200Z,7.99
2022-09-18T00:39:57.917Z,7.99
2022-09-18T00:42:25.639Z,8.03
2022-09-18T00:44:53.368Z,8.04
2022-09-18T00:47:27.081Z,8.06
2022-09-18T00:50:00.794Z,8.09
2022-09-18T00:52:34.420Z,8.06
2022-09-18T00:55:08.255Z,8.05
2022-09-18T00:57:40.360Z,8.09
2022-09-18T01:00:12.822Z,8.09
2022-09-18T01:02:43.409Z,8.07
2022-09-18T01:05:12.702Z,8.09
2022-09-18T01:07:54.746Z,8.11
2022-09-18T01:10:38.059Z,8.07
2022-09-18T01:13:16.819Z,8.07
2022-09-18T01:15:52.450Z,8.06
2022-09-18T01:18:32.411Z,8.07
2022-09-18T01:21:11.516Z,8.09
2022-09-18T01:24:16.265Z,8.08
2022-09-18T01:26:56.208Z,8.08
2022-09-18T01:29:43.500Z,8.04
2022-09-18T01:32:19.507Z,8.10
2022-09-18T01:34:52.749Z,8.09
2022-09-18T01:37:26.673Z,8.13
2022-09-18T01:39:59.313Z,8.12
2022-09-18T01:42:30.471Z,8.13
2022-09-18T01:45:03.430Z,8.12
2022-09-18T01:47:36.767Z,8.18
2022-09-18T01:50:07.596Z,8.22
2022-09-18T01:52:40.320Z,8.19
2022-09-18T01:55:15.549Z,8.21
2022-09-18T01:57:48.220Z,8.23
2022-09-18T02:00:17.699Z,8.24
2022-09-18T02:02:51.826Z,8.27
2022-09-18T02:05:27.519Z,8.29
2022-09-18T02:08:05.696Z,8.29
2022-09-18T02:10:39.080Z,8.34
2022-09-18T02:13:10.947Z,8.30
2022-09-18T02:15:42.705Z,8.32
2022-09-18T02:18:24.396Z,8.33
2022-09-18T02:20:53.415Z,8.35
2022-09-18T02:23:21.965Z,8.31
2022-09-18T02:25:53.520Z,8.30
2022-09-18T02:28:25.024Z,8.32
2022-09-18T02:30:54.277Z,8.30
2022-09-18T02:33:28.052Z,8.33
2022-09-18T02:36:09.454Z,8.35
2022-09-18T02:38:44.419Z,8.36
2022-09-18T02:41:20.488Z,8.36
2022-09-18T02:43:56.011Z,8.35
2022-09-18T02:46:33.543Z,8.36
2022-09-18T02:49:10.979Z,8.36
2022-09-18T02:51:47.450Z,8.35
2022-09-18T02:54:21.916Z,8.37
2022-09-18T02:56:53.899Z,8.33
2022-09-18T02:59:27.631Z,8.35
2022-09-18T03:02:00.336Z,8.36
2022-09-18T03:04:30.741Z,8.37
2022-09-18T03:07:02.696Z,8.34
2022-09-18T03:09:32.777Z,8.33
2022-09-18T03:12:00.467Z,8.35
2022-09-18T03:14:28.206Z,8.33
2022-09-18T03:16:56.539Z,8.35
2022-09-18T03:19:25.631Z,8.32
2022-09-18T03:21:53.539Z,8.38
2022-09-18T03:24:25.243Z,8.36
2022-09-18T03:26:53.805Z,8.38
2022-09-18T03:29:24.403Z,8.35
2022-09-18T03:31:53.338Z,8.37
2022-09-18T03:34:22.969Z,8.41
2022-09-18T03:36:52.399Z,8.44
2022-09-18T03:39:20.342Z,8.44
2022-09-18T03:41:50.591Z,8.48
2022-09-18T03:44:18.599Z,8.48
2022-09-18T03:46:47.159Z,8.47
2022-09-18T03:49:14.985Z,8.49
2022-09-18T03:51:43.739Z,8.49
2022-09-18T03:54:14.936Z,8.54
2022-09-18T03:57:01.062Z,8.52
2022-09-18T04:00:00.831Z,8.52
2022-09-18T04:02:44.571Z,8.52
2022-09-18T04:05:31.129Z,8.54
2022-09-18T04:08:17.445Z,8.55
2022-09-18T04:11:07.220Z,8.55
2022-09-18T04:13:36.024Z,8.51
2022-09-18T04:16:08.321Z,8.52
2022-09-18T04:18:36.086Z,8.54
2022-09-18T04:21:04.816Z,8.58
2022-09-18T04:23:32.555Z,8.59
2022-09-18T04:26:01.903Z,8.59
2022-09-18T04:28:33.248Z,8.63
2022-09-18T04:31:01.090Z,8.66
2022-09-18T04:33:30.339Z,8.64
2022-09-18T04:35:58.147Z,8.66
2022-09-18T04:38:28.373Z,8.63
2022-09-18T04:40:57.627Z,8.62
2022-09-18T04:43:26.670Z,8.62
2022-09-18T04:45:56.291Z,8.67
2022-09-18T04:48:24.763Z,8.68
2022-09-18T04:50:53.615Z,8.62
2022-09-18T04:53:22.797Z,8.65
2022-09-18T04:55:50.519Z,8.68
2022-09-18T04:58:20.565Z,8.67
2022-09-18T05:00:53.316Z,8.68
2022-09-18T05:03:22.693Z,8.67
2022-09-18T05:05:52.143Z,8.67
2022-09-18T05:08:19.874Z,8.67
2022-09-18T05:10:47.637Z,8.72
2022-09-18T05:13:16.007Z,8.72
2022-09-18T05:16:00.571Z,8.75
2022-09-18T05:18:32.327Z,8.75
2022-09-18T05:21:03.088Z,8.74
2022-09-18T05:23:33.267Z,8.75
2022-09-18T05:26:01.341Z,8.73
2022-09-18T05:28:29.083Z,8.73
2022-09-18T05:31:00.660Z,8.79
2022-09-18T05:33:36.236Z,8.80
2022-09-18T05:36:05.576Z,8.77
2022-09-18T05:38:34.161Z,8.76
2022-09-18T05:41:04.388Z,8.74
2022-09-18T05:43:32.208Z,8.73
2022-09-18T05:46:01.912Z,8.73
2022-09-18T05:48:42.808Z,8.73
2022-09-18T05:51:10.569Z,8.74
2022-09-18T05:53:38.283Z,8.72
2022-09-18T05:56:12.609Z,8.69
2022-09-18T05:58:41.584Z,8.74
2022-09-18T06:01:09.432Z,8.73
2022-09-18T06:03:55.980Z,8.69
2022-09-18T06:06:24.676Z,8.72
2022-09-18T06:08:52.398Z,8.77
2022-09-18T06:11:21.479Z,8.77
2022-09-18T06:13:51.658Z,8.77
2022-09-18T06:16:20.359Z,8.73
2022-09-18T06:18:58.517Z,8.75
2022-09-18T06:21:26.215Z,8.75
2022-09-18T06:23:54.047Z,8.67
2022-09-18T06:26:29.737Z,8.74
2022-09-18T06:28:57.526Z,8.79
2022-09-18T06:31:28.696Z,8.77
2022-09-18T06:34:08.546Z,8.84
2022-09-18T06:36:36.226Z,8.79
2022-09-18T06:39:20.116Z,8.82
2022-09-18T06:41:53.209Z,8.80
2022-09-18T06:44:27.271Z,8.82
2022-09-18T06:47:03.667Z,8.86
2022-09-18T06:49:41.043Z,8.87
2022-09-18T06:52:08.768Z,8.93
2022-09-18T06:54:38.272Z,8.92
2022-09-18T06:57:08.413Z,8.94
2022-09-18T06:59:38.081Z,8.97
2022-09-18T07:02:16.062Z,9.00
2022-09-18T07:04:57.080Z,8.90
2022-09-18T07:07:24.816Z,8.92
2022-09-18T07:09:53.526Z,8.96
2022-09-18T07:12:40.627Z,8.99
2022-09-18T07:15:09.703Z,9.05
2022-09-18T07:17:37.430Z,8.97
2022-09-18T07:20:07.448Z,9.01
2022-09-18T07:22:43.712Z,9.05
2022-09-18T07:25:15.375Z,9.01
2022-09-18T07:27:44.664Z,9.04
2022-09-18T07:30:14.416Z,9.05
2022-09-18T07:32:43.331Z,9.06
2022-09-18T07:35:17.334Z,9.08
2022-09-18T07:37:45.063Z,9.09
2022-09-18T07:40:32.032Z,9.13
2022-09-18T07:43:09.969Z,9.15
2022-09-18T07:45:44.855Z,9.17
2022-09-18T07:48:12.870Z,9.19
2022-09-18T07:50:47.740Z,9.23
2022-09-18T07:53:17.615Z,9.23
2022-09-18T07:55:48.313Z,9.28
2022-09-18T07:58:16.074Z,9.32
2022-09-18T08:01:02.106Z,9.36
2022-09-18T08:03:31.164Z,9.40
2022-09-18T08:06:08.590Z,9.42
2022-09-18T08:08:37.094Z,9.41
2022-09-18T08:11:25.407Z,9.46
2022-09-18T08:14:00.297Z,9.47
2022-09-18T08:16:46.184Z,9.47
2022-09-18T08:19:25.992Z,9.52
2022-09-18T08:22:02.045Z,9.56
2022-09-18T08:24:31.821Z,9.56
2022-09-18T08:27:03.409Z,9.59
2022-09-18T08:29:32.288Z,9.66
2022-09-18T08:32:09.581Z,9.69
2022-09-18T08:34:38.204Z,9.65
2022-09-18T08:37:07.832Z,9.70
2022-09-18T08:39:54.155Z,9.78
2022-09-18T08:42:42.240Z,9.81
2022-09-18T08:45:36.561Z,9.85
2022-09-18T08:48:11.712Z,9.94
2022-09-18T08:50:44.887Z,10.09
2022-09-18T08:53:21.536Z,10.16
2022-09-18T08:56:17.846Z,10.30
2022-09-18T08:59:12.577Z,10.43
2022-09-18T09:01:46.534Z,10.51
2022-09-18T09:04:21.527Z,10.61
2022-09-18T09:07:08.290Z,10.53
2022-09-18T09:10:09.048Z,10.65
2022-09-18T09:12:48.636Z,10.64
2022-09-18T09:15:25.325Z,10.71
2022-09-18T09:18:07.126Z,10.78
2022-09-18T09:20:46.576Z,10.82
2022-09-18T09:23:20.539Z,10.92
2022-09-18T09:26:02.649Z,10.91
2022-09-18T09:28:56.460Z,11.01
2022-09-18T09:31:49.716Z,11.09
2022-09-18T09:34:40.757Z,11.23
2022-09-18T09:37:33.930Z,11.24
2022-09-18T09:40:11.891Z,11.30
2022-09-18T09:42:48.332Z,11.27
2022-09-18T09:45:24.855Z,11.33
2022-09-18T09:48:01.842Z,11.28
2022-09-18T09:50:51.319Z,11.24
2022-09-18T09:53:20.119Z,11.28
2022-09-18T09:55:59.349Z,11.27
2022-09-18T09:58:40.274Z,11.19
2022-09-18T10:01:14.677Z,11.21
2022-09-18T10:03:51.179Z,11.17
2022-09-18T10:06:37.348Z,11.24
2022-09-18T10:09:17.045Z,11.30
2022-09-18T10:11:57.248Z,11.20
2022-09-18T10:14:31.034Z,11.17
2022-09-18T10:16:59.367Z,11.08
2022-09-18T10:19:38.319Z,11.05
2022-09-18T10:22:09.012Z,11.01
2022-09-18T10:24:49.815Z,11.10
2022-09-18T10:27:20.007Z,11.15
2022-09-18T10:29:49.591Z,11.12
2022-09-18T10:32:36.620Z,11.22
2022-09-18T10:35:41.365Z,11.20
2022-09-18T10:38:32.315Z,11.19
2022-09-18T10:41:31.799Z,11.13
2022-09-18T10:44:05.694Z,11.17
2022-09-18T10:46:37.451Z,11.24
2022-09-18T10:49:19.823Z,11.31
2022-09-18T10:51:48.030Z,11.35
2022-09-18T10:54:18.864Z,11.45
2022-09-18T10:56:56.961Z,11.42
2022-09-18T10:59:35.874Z,11.38
2022-09-18T11:02:07.520Z,11.42
2022-09-18T11:04:37.628Z,11.49
2022-09-18T11:07:07.886Z,11.51
2022-09-18T11:09:39.591Z,11.58
2022-09-18T11:12:18.169Z,11.67
2022-09-18T11:14:50.487Z,11.72
2022-09-18T11:17:27.782Z,11.84
2022-09-18T11:19:57.593Z,11.97
2022-09-18T11:22:45.245Z,12.14
2022-09-18T11:25:22.691Z,12.34
2022-09-18T11:27:54.696Z,12.48
2022-09-18T11:30:26.462Z,12.48
2022-09-18T11:33:00.455Z,12.74
2022-09-18T11:35:32.507Z,12.79
2022-09-18T11:38:06.232Z,12.80
2022-09-18T11:40:44.965Z,12.94
2022-09-18T11:43:17.079Z,12.92
2022-09-18T11:45:56.056Z,12.93
2022-09-18T11:48:31.163Z,12.85
2022-09-18T11:51:02.540Z,12.98
2022-09-18T11:53:39.196Z,12.96
2022-09-18T11:56:14.180Z,13.05
2022-09-18T11:58:46.088Z,13.20
2022-09-18T12:01:25.903Z,13.31
2022-09-18T12:04:01.874Z,13.44
2022-09-18T12:06:39.947Z,13.62
2022-09-18T12:09:14.873Z,13.77
2022-09-18T12:11:51.750Z,13.92
2022-09-18T12:14:23.775Z,13.85
2022-09-18T12:17:21.435Z,13.91
2022-09-18T12:19:57.723Z,13.91
2022-09-18T12:22:32.308Z,13.95
2022-09-18T12:25:01.614Z,13.96
2022-09-18T12:27:56.852Z,13.90
2022-09-18T12:30:34.180Z,13.90
2022-09-18T12:33:34.261Z,13.95
2022-09-18T12:36:37.215Z,13.96
2022-09-18T12:39:21.527Z,13.92
2022-09-18T12:41:58.547Z,13.96
2022-09-18T12:44:55.292Z,13.75
2022-09-18T12:47:42.323Z,13.99
2022-09-18T12:50:25.772Z,14.02
2022-09-18T12:53:12.199Z,14.11
2022-09-18T12:56:01.684Z,14.13
2022-09-18T12:58:57.924Z,14.22
2022-09-18T13:01:31.159Z,14.19
2022-09-18T13:04:21.639Z,14.20
2022-09-18T13:06:57.167Z,14.10
2022-09-18T13:09:31.063Z,13.98
2022-09-18T13:12:02.596Z,13.94
2022-09-18T13:14:38.014Z,14.20
2022-09-18T13:17:12.099Z,14.10
2022-09-18T13:19:44.596Z,14.15
2022-09-18T13:22:15.432Z,14.21
2022-09-18T13:24:46.603Z,14.24
2022-09-18T13:27:16.877Z,14.20
2022-09-18T13:29:50.079Z,14.11
2022-09-18T13:32:20.554Z,14.10
2022-09-18T13:34:54.822Z,14.07
2022-09-18T13:37:25.891Z,14.08
2022-09-18T13:40:09.903Z,14.13
2022-09-18T13:42:41.478Z,14.16
2022-09-18T13:45:19.517Z,13.98
2022-09-18T13:48:04.816Z,13.91
2022-09-18T13:50:34.696Z,13.75
2022-09-18T13:53:04.174Z,13.70
2022-09-18T13:55:48.371Z,13.80
2022-09-18T13:58:52.637Z,13.86
2022-09-18T14:01:57.061Z,13.98
2022-09-18T14:05:04.456Z,13.97
2022-09-18T14:07:55.278Z,13.94
2022-09-18T14:10:26.787Z,13.97
2022-09-18T14:13:24.987Z,13.89
2022-09-18T14:15:56.491Z,13.88
2022-09-18T14:18:28.160Z,13.87
2022-09-18T14:21:12.861Z,13.81
2022-09-18T14:24:23.208Z,13.81
2022-09-18T14:27:23.300Z,13.91
2022-09-18T14:29:56.318Z,13.88
2022-09-18T14:32:24.664Z,13.87
2022-09-18T14:35:15.882Z,13.75
2022-09-18T14:37:43.587Z,13.67
2022-09-18T14:40:19.263Z,13.70
2022-09-18T14:42:47.117Z,13.63
2022-09-18T14:45:31.456Z,13.57
2022-09-18T14:48:00.227Z,13.57
2022-09-18T14:50:35.034Z,13.61
2022-09-18T14:53:19.947Z,13.63
2022-09-18T14:55:52.828Z,13.57
2022-09-18T14:58:22.502Z,13.60
2022-09-18T15:00:55.492Z,13.55
2022-09-18T15:03:26.493Z,13.40
2022-09-18T15:05:59.960Z,13.44
2022-09-18T15:08:27.714Z,13.42
2022-09-18T15:10:58.878Z,13.39
2022-09-18T15:13:26.899Z,13.38
2022-09-18T15:16:00.848Z,13.34
2022-09-18T15:18:30.341Z,13.35
2022-09-18T15:21:01.744Z,13.33
2022-09-18T15:23:31.382Z,13.23
2022-09-18T15:26:03.513Z,13.14
2022-09-18T15:28:34.475Z,13.07
2022-09-18T15:31:05.566Z,13.07
2022-09-18T15:33:35.756Z,13.01
2022-09-18T15:36:04.923Z,12.99
2022-09-18T15:38:39.754Z,12.95
2022-09-18T15:41:22.944Z,12.92
2022-09-18T15:43:50.851Z,12.83
2022-09-18T15:46:27.857Z,12.83
2022-09-18T15:48:59.430Z,12.76
2022-09-18T15:51:30.084Z,12.68
2022-09-18T15:54:04.078Z,12.66
2022-09-18T15:56:35.056Z,12.59
2022-09-18T15:59:06.003Z,12.60
2022-09-18T16:01:39.646Z,12.55
2022-09-18T16:04:20.234Z,12.55
2022-09-18T16:07:01.429Z,12.50
2022-09-18T16:09:38.587Z,12.51
2022-09-18T16:12:35.975Z,12.43
2022-09-18T16:15:17.735Z,12.42
2022-09-18T16:18:03.808Z,12.41
2022-09-18T16:20:39.926Z,12.31
2022-09-18T16:23:16.310Z,12.30
2022-09-18T16:25:45.118Z,12.29
2022-09-18T16:28:25.768Z,12.19
2022-09-18T16:30:54.065Z,12.22
2022-09-18T16:33:25.390Z,12.19
2022-09-18T16:35:57.007Z,12.22
2022-09-18T16:38:24.875Z,12.13
2022-09-18T16:40:52.699Z,12.12
2022-09-18T16:43:20.676Z,12.04
2022-09-18T16:45:48.660Z,11.95
2022-09-18T16:48:16.987Z,11.91
2022-09-18T16:50:47.485Z,11.93
2022-09-18T16:53:15.947Z,11.85
2022-09-18T16:55:47.051Z,11.85
2022-09-18T16:58:16.064Z,11.88
2022-09-18T17:00:43.847Z,11.82
2022-09-18T17:03:12.176Z,11.75
2022-09-18T17:05:39.986Z,11.71
2022-09-18T17:08:09.120Z,11.74
2022-09-18T17:10:37.530Z,11.67
2022-09-18T17:13:05.593Z,11.68
2022-09-18T17:15:33.706Z,11.64
2022-09-18T17:18:01.500Z,11.59
2022-09-18T17:20:29.328Z,11.58
2022-09-18T17:22:57.093Z,11.61
2022-09-18T17:25:26.289Z,11.59
2022-09-18T17:27:54.015Z,11.60
2022-09-18T17:30:22.119Z,11.57
2022-09-18T17:32:50.365Z,11.57
2022-09-18T17:35:18.776Z,11.53
2022-09-18T17:37:46.535Z,11.45
2022-09-18T17:40:14.838Z,11.43
2022-09-18T17:42:44.374Z,11.41
2022-09-18T17:45:12.111Z,11.39
2022-09-18T17:47:39.878Z,11.32
2022-09-18T17:50:08.447Z,11.36
2022-09-18T17:52:37.441Z,11.33
2022-09-18T17:55:05.812Z,11.27
2022-09-18T17:57:36.275Z,11.22
2022-09-18T18:00:06.431Z,11.22
2022-09-18T18:02:39.609Z,11.19
2022-09-18T18:05:07.802Z,11.15
2022-09-18T18:07:35.586Z,11.12
2022-09-18T18:10:04.132Z,11.16
2022-09-18T18:12:32.092Z,11.12
2022-09-18T18:14:59.826Z,11.10
2022-09-18T18:17:29.676Z,11.15
2022-09-18T18:19:57.360Z,11.13
2022-09-18T18:22:25.117Z,11.14
2022-09-18T18:24:52.912Z,11.13
2022-09-18T18:27:21.496Z,11.18
2022-09-18T18:29:50.568Z,11.23
2022-09-18T18:32:18.266Z,11.22
2022-09-18T18:34:48.469Z,11.26
2022-09-18T18:37:17.018Z,11.27
2022-09-18T18:39:44.735Z,11.28
2022-09-18T18:42:12.524Z,11.31
2022-09-18T18:44:41.665Z,11.31
2022-09-18T18:47:09.475Z,11.29
2022-09-18T18:49:38.124Z,11.27
2022-09-18T18:52:07.534Z,11.30
2022-09-18T18:54:35.483Z,11.29
2022-09-18T18:57:03.529Z,11.30
2022-09-18T18:59:32.060Z,11.28
2022-09-18T19:02:00.216Z,11.30
2022-09-18T19:04:28.026Z,11.31
2022-09-18T19:06:56.481Z,11.29
2022-09-18T19:09:26.317Z,11.32
2022-09-18T19:11:55.259Z,11.28
2022-09-18T19:14:25.156Z,11.29
2022-09-18T19:16:54.172Z,11.28
2022-09-18T19:19:23.671Z,11.20
2022-09-18T19:21:53.436Z,11.20
2022-09-18T19:24:21.730Z,11.20
2022-09-18T19:26:51.026Z,11.17
2022-09-18T19:29:21.418Z,11.12
2022-09-18T19:31:50.210Z,11.18
2022-09-18T19:34:19.900Z,11.18
2022-09-18T19:36:50.043Z,11.16
2022-09-18T19:39:19.237Z,11.14
2022-09-18T19:41:53.160Z,11.13
2022-09-18T19:44:27.595Z,11.13
2022-09-18T19:46:58.575Z,11.18
2022-09-18T19:49:32.001Z,11.17
2022-09-18T19:51:59.861Z,11.14
2022-09-18T19:54:27.605Z,11.14
2022-09-18T19:56:58.055Z,11.11
2022-09-18T19:59:26.043Z,11.13
2022-09-18T20:01:54.630Z,11.09
2022-09-18T20:04:22.414Z,11.13
2022-09-18T20:06:50.265Z,11.16
2022-09-18T20:09:17.975Z,11.13
2022-09-18T20:11:48.250Z,11.14
2022-09-18T20:14:18.306Z,11.10
2022-09-18T20:16:45.997Z,11.11
2022-09-18T20:19:13.746Z,11.13
2022-09-18T20:21:42.058Z,11.14
2022-09-18T20:24:09.887Z,11.15
2022-09-18T20:26:37.720Z,11.14
2022-09-18T20:29:05.521Z,11.13
2022-09-18T20:31:34.695Z,11.11
2022-09-18T20:34:04.216Z,11.13
2022-09-18T20:36:32.205Z,11.15
2022-09-18T20:39:00.648Z,11.11
2022-09-18T20:41:29.870Z,11.12
2022-09-18T20:44:00.108Z,11.11
2022-09-18T20:46:28.010Z,11.14
2022-09-18T20:48:57.235Z,11.13
2022-09-18T20:51:28.884Z,11.12
2022-09-18T20:53:58.219Z,11.09
2022-09-18T20:56:30.862Z,11.04
2022-09-18T20:58:58.967Z,10.99
2022-09-18T21:01:29.695Z,10.98
2022-09-18T21:04:01.573Z,11.02
2022-09-18T21:06:32.267Z,10.94
2022-09-18T21:09:01.233Z,10.89
2022-09-18T21:11:31.255Z,10.86
2022-09-18T21:14:00.775Z,10.77
2022-09-18T21:16:30.008Z,10.74
2022-09-18T21:19:01.817Z,10.73
2022-09-18T21:21:31.686Z,10.69
2022-09-18T21:24:01.381Z,10.67
2022-09-18T21:26:32.914Z,10.66
2022-09-18T21:29:02.986Z,10.68
2022-09-18T21:31:33.469Z,10.67
2022-09-18T21:34:03.832Z,10.66
2022-09-18T21:36:32.665Z,10.67
2022-09-18T21:39:00.422Z,10.65
2022-09-18T21:41:28.300Z,10.70
2022-09-18T21:43:57.366Z,10.71
2022-09-18T21:46:25.267Z,10.70
2022-09-18T21:48:56.707Z,10.66
2022-09-18T21:51:25.783Z,10.69
2022-09-18T21:53:53.446Z,10.68
2022-09-18T21:56:21.440Z,10.58
2022-09-18T21:58:50.196Z,10.60
2022-09-18T22:01:21.296Z,10.59
2022-09-18T22:03:53.332Z,10.58
2022-09-18T22:06:22.708Z,10.57
2022-09-18T22:08:54.423Z,10.54
2022-09-18T22:11:24.671Z,10.54
2022-09-18T22:13:53.625Z,10.52
2022-09-18T22:16:23.346Z,10.58
2022-09-18T22:18:51.239Z,10.62
2022-09-18T22:21:21.980Z,10.62
2022-09-18T22:23:52.846Z,10.60
2022-09-18T22:26:21.987Z,10.57
2022-09-18T22:28:50.957Z,10.57
2022-09-18T22:31:19.106Z,10.59
2022-09-18T22:33:47.701Z,10.54
2022-09-18T22:36:16.447Z,10.54
2022-09-18T22:38:44.174Z,10.47
2022-09-18T22:41:13.371Z,10.40
2022-09-18T22:43:41.318Z,10.37
2022-09-18T22:46:11.196Z,10.33
2022-09-18T22:48:39.764Z,10.27
2022-09-18T22:51:09.026Z,10.25
2022-09-18T22:53:38.246Z,10.20
2022-09-18T22:56:07.773Z,10.20
2022-09-18T22:58:37.750Z,10.18
2022-09-18T23:01:09.930Z,10.22
2022-09-18T23:03:38.659Z,10.18
2022-09-18T23:06:08.455Z,10.17
2022-09-18T23:08:37.215Z,10.17
2022-09-18T23:11:07.368Z,10.12
2022-09-18T23:13:36.968Z,10.10
2022-09-18T23:16:06.267Z,10.08
2022-09-18T23:18:34.568Z,10.04
2022-09-18T23:21:04.036Z,10.04
2022-09-18T23:23:33.579Z,10.06
2022-09-18T23:26:08.377Z,10.05
2022-09-18T23:28:39.197Z,10.02
2022-09-18T23:31:10.244Z,10.00
2022-09-18T23:33:38.512Z,10.01
2022-09-18T23:36:11.342Z,10.02
2022-09-18T23:38:39.639Z,10.00
2022-09-18T23:41:09.444Z,9.99
2022-09-18T23:43:39.597Z,9.98
2022-09-18T23:46:08.877Z,9.95
2022-09-18T23:48:36.748Z,9.90
2022-09-18T23:51:05.413Z,9.87
2022-09-18T23:53:38.088Z,9.90
2022-09-18T23:56:08.220Z,9.87
2022-09-18T23:58:39.719Z,9.86
